Time,TemperatureF,DewpointF,PressureIn,WindDirection,WindDirectionDegrees,WindSpeedMPH,WindSpeedGustMPH,Humidity,HourlyPrecipIn,Conditions,Clouds,dailyrainin,SoftwareType,DateUTC
2013-05-24 00:04:00,63.8,53.0,30.05,NNW,328,2.0,10.0,68,0.00,,,0.03,weatherlink.com 1.10,2013-05-24 04:04:00,
2013-05-24 00:19:00,63.6,53.0,30.05,WNW,285,1.0,8.0,69,0.00,,,0.00,weatherlink.com 1.10,2013-05-24 04:19:00,
2013-05-24 00:34:00,63.4,53.0,30.05,North,360,3.0,11.0,70,0.00,,,0.00,weatherlink.com 1.10,2013-05-24 04:34:00,
2013-05-24 00:49:00,62.8,53.0,30.06,WNW,295,2.0,10.0,71,0.00,,,0.00,weatherlink.com 1.10,2013-05-24 04:49:00,
2013-05-24 01:04:00,62.6,53.0,30.06,NNW,328,2.0,7.0,71,0.00,,,0.00,weatherlink.com 1.10,2013-05-24 05:04:00,
2013-05-24 01:19:00,62.5,53.0,30.07,NE,37,4.0,7.0,71,0.00,,,0.00,weatherlink.com 1.10,2013-05-24 05:19:00,
2013-05-24 01:34:00,62.5,53.0,30.06,NE,39,3.0,8.0,71,0.00,,,0.00,weatherlink.com 1.10,2013-05-24 05:34:00,
2013-05-24 01:49:00,62.3,53.0,30.07,ENE,64,1.0,6.0,72,0.00,,,0.00,weatherlink.com 1.10,2013-05-24 05:49:00,
2013-05-24 02:04:00,61.6,53.0,30.06,NNE,13,3.0,6.0,73,0.00,,,0.00,weatherlink.com 1.10,2013-05-24 06:04:00,
2013-05-24 02:19:00,61.6,53.0,30.07,NW,319,0.0,7.0,73,0.00,,,0.00,weatherlink.com 1.10,2013-05-24 06:19:00,
2013-05-24 02:34:00,61.7,53.0,30.07,NE,53,0.0,8.0,73,0.00,,,0.00,weatherlink.com 1.10,2013-05-24 06:34:00,
2013-05-24 02:50:00,61.5,53.0,30.06,WNW,303,3.0,9.0,74,0.00,,,0.00,weatherlink.com 1.10,2013-05-24 06:50:00,
2013-05-24 03:05:00,61.2,53.0,30.06,NNW,340,2.0,8.0,75,0.00,,,0.00,weatherlink.com 1.10,2013-05-24 07:05:00,
2013-05-24 03:20:00,61.5,54.0,30.07,SW,218,1.0,9.0,75,0.00,,,0.00,weatherlink.com 1.10,2013-05-24 07:20:00,
2013-05-24 03:35:00,61.4,54.0,30.07,North,349,2.0,7.0,76,0.00,,,0.00,weatherlink.com 1.10,2013-05-24 07:35:00,
2013-05-24 03:50:00,61.0,54.0,30.07,NNW,343,3.0,10.0,78,0.00,,,0.00,weatherlink.com 1.10,2013-05-24 07:50:00,
2013-05-24 04:05:00,60.5,54.0,30.08,North,8,3.0,8.0,80,0.00,,,0.00,weatherlink.com 1.10,2013-05-24 08:05:00,
2013-05-24 04:20:00,59.7,55.0,30.08,NE,49,3.0,12.0,85,0.00,,,0.00,weatherlink.com 1.10,2013-05-24 08:20:00,
2013-05-24 04:35:00,58.2,55.0,30.08,SSW,205,1.0,9.0,89,0.00,,,0.00,weatherlink.com 1.10,2013-05-24 08:35:00,
2013-05-24 04:50:00,58.2,55.0,30.09,ENE,75,1.0,8.0,90,0.00,,,0.00,weatherlink.com 1.10,2013-05-24 08:50:00,
2013-05-24 05:05:00,58.3,56.0,30.09,NNW,328,3.0,8.0,90,0.00,,,0.00,weatherlink.com 1.10,2013-05-24 09:05:00,
2013-05-24 05:20:00,57.9,55.0,30.09,WNW,297,3.0,8.0,91,0.00,,,0.00,weatherlink.com 1.10,2013-05-24 09:20:00,
2013-05-24 05:35:00,57.6,55.0,30.09,NW,309,2.0,11.0,92,0.00,,,0.00,weatherlink.com 1.10,2013-05-24 09:35:00,
2013-05-24 05:50:00,57.3,55.0,30.10,ENE,65,2.0,12.0,92,0.01,,,0.01,weatherlink.com 1.10,2013-05-24 09:50:00,
2013-05-24 06:05:00,56.5,54.0,30.11,NW,311,2.0,12.0,90,0.01,,,0.01,weatherlink.com 1.10,2013-05-24 10:05:00,
2013-05-24 06:20:00,55.9,53.0,30.11,NNW,333,6.0,12.0,89,0.01,,,0.01,weatherlink.com 1.10,2013-05-24 10:20:00,
2013-05-24 06:35:00,55.5,53.0,30.12,East,101,3.0,15.0,90,0.01,,,0.01,weatherlink.com 1.10,2013-05-24 10:35:00,
2013-05-24 06:50:00,55.3,53.0,30.14,NNW,343,10.0,16.0,90,0.00,,,0.01,weatherlink.com 1.10,2013-05-24 10:50:00,
2013-05-24 07:05:00,55.4,53.0,30.14,NNW,333,5.0,14.0,90,0.00,,,0.01,weatherlink.com 1.10,2013-05-24 11:05:00,
2013-05-24 07:20:00,55.2,51.0,30.15,North,354,9.0,16.0,87,0.00,,,0.01,weatherlink.com 1.10,2013-05-24 11:20:00,
2013-05-24 07:35:00,55.1,51.0,30.16,North,7,3.0,13.0,86,0.00,,,0.01,weatherlink.com 1.10,2013-05-24 11:35:00,
2013-05-24 07:50:00,55.6,51.0,30.17,North,355,5.0,18.0,84,0.00,,,0.01,weatherlink.com 1.10,2013-05-24 11:50:00,
2013-05-24 08:05:00,56.3,51.0,30.18,NE,34,3.0,13.0,81,0.00,,,0.01,weatherlink.com 1.10,2013-05-24 12:05:00,
2013-05-24 08:20:00,56.5,50.0,30.19,NNE,23,3.0,12.0,80,0.00,,,0.01,weatherlink.com 1.10,2013-05-24 12:20:00,
2013-05-24 08:36:00,56.8,51.0,30.20,ENE,69,2.0,15.0,80,0.00,,,0.01,weatherlink.com 1.10,2013-05-24 12:36:00,
2013-05-24 08:51:00,56.9,50.0,30.21,East,89,3.0,15.0,77,0.00,,,0.01,weatherlink.com 1.10,2013-05-24 12:51:00,
2013-05-24 09:06:00,57.2,49.0,30.22,NNW,342,7.0,11.0,75,0.00,,,0.01,weatherlink.com 1.10,2013-05-24 13:06:00,
2013-05-24 09:21:00,56.8,49.0,30.23,ENE,64,7.0,12.0,75,0.00,,,0.01,weatherlink.com 1.10,2013-05-24 13:21:00,
2013-05-24 09:36:00,57.2,49.0,30.24,NNW,347,1.0,8.0,74,0.00,,,0.01,weatherlink.com 1.10,2013-05-24 13:36:00,
2013-05-24 09:51:00,57.2,49.0,30.25,NW,314,7.0,9.0,73,0.00,,,0.01,weatherlink.com 1.10,2013-05-24 13:51:00,
2013-05-24 10:06:00,56.1,48.0,30.26,NNW,347,6.0,13.0,75,0.00,,,0.01,weatherlink.com 1.10,2013-05-24 14:06:00,
2013-05-24 10:21:00,55.6,47.0,30.26,NNE,28,6.0,12.0,74,0.00,,,0.01,weatherlink.com 1.10,2013-05-24 14:21:00,
2013-05-24 10:36:00,56.8,47.0,30.27,NNW,338,4.0,12.0,71,0.00,,,0.01,weatherlink.com 1.10,2013-05-24 14:36:00,
2013-05-24 10:51:00,57.6,47.0,30.27,NNW,336,4.0,12.0,68,0.00,,,0.01,weatherlink.com 1.10,2013-05-24 14:51:00,
2013-05-24 11:06:00,59.5,46.0,30.28,NNW,338,4.0,12.0,61,0.00,,,0.01,weatherlink.com 1.10,2013-05-24 15:06:00,
2013-05-24 11:21:00,58.9,46.0,30.28,NNW,338,1.0,11.0,62,0.00,,,0.01,weatherlink.com 1.10,2013-05-24 15:21:00,
2013-05-24 11:36:00,59.7,47.0,30.29,NNW,335,0.0,11.0,64,0.00,,,0.01,weatherlink.com 1.10,2013-05-24 15:36:00,
2013-05-24 11:51:00,61.6,48.0,30.29,NNE,30,2.0,9.0,62,0.00,,,0.01,weatherlink.com 1.10,2013-05-24 15:51:00,
2013-05-24 12:06:00,61.3,46.0,30.30,NNW,338,2.0,11.0,57,0.00,,,0.01,weatherlink.com 1.10,2013-05-24 16:06:00,
2013-05-24 12:21:00,60.5,45.0,30.30,NW,315,1.0,11.0,57,0.00,,,0.01,weatherlink.com 1.10,2013-05-24 16:21:00,
2013-05-24 12:36:00,61.2,43.0,30.30,North,357,2.0,14.0,51,0.00,,,0.01,weatherlink.com 1.10,2013-05-24 16:36:00,
2013-05-24 12:51:00,63.4,45.0,30.30,North,6,4.0,9.0,51,0.00,,,0.01,weatherlink.com 1.10,2013-05-24 16:51:00,
2013-05-24 13:06:00,63.7,43.0,30.29,North,350,5.0,9.0,48,0.00,,,0.01,weatherlink.com 1.10,2013-05-24 17:06:00,
2013-05-24 13:21:00,63.4,45.0,30.30,North,356,2.0,13.0,51,0.00,,,0.01,weatherlink.com 1.10,2013-05-24 17:21:00,
2013-05-24 13:36:00,63.8,41.0,30.29,East,90,4.0,12.0,44,0.00,,,0.01,weatherlink.com 1.10,2013-05-24 17:36:00,
2013-05-24 13:51:00,64.7,43.0,30.30,NE,37,8.0,11.0,46,0.00,,,0.01,weatherlink.com 1.10,2013-05-24 17:51:00,
2013-05-24 14:06:00,65.3,45.0,30.29,ENE,73,2.0,8.0,49,0.00,,,0.01,weatherlink.com 1.10,2013-05-24 18:06:00,
2013-05-24 14:21:00,66.0,44.0,30.29,NNE,31,3.0,11.0,45,0.00,,,0.01,weatherlink.com 1.10,2013-05-24 18:21:00,
2013-05-24 14:36:00,67.2,44.0,30.29,NNW,344,8.0,11.0,43,0.00,,,0.01,weatherlink.com 1.10,2013-05-24 18:36:00,
2013-05-24 14:51:00,66.3,43.0,30.29,WNW,301,3.0,11.0,43,0.00,,,0.01,weatherlink.com 1.10,2013-05-24 18:51:00,
2013-05-24 15:06:00,67.1,43.0,30.29,NW,326,3.0,12.0,42,0.00,,,0.01,weatherlink.com 1.10,2013-05-24 19:06:00,
2013-05-24 15:21:00,67.2,42.0,30.29,NNE,15,10.0,13.0,40,0.00,,,0.01,weatherlink.com 1.10,2013-05-24 19:21:00,
2013-05-24 15:36:00,67.3,45.0,30.29,NW,317,2.0,10.0,44,0.00,,,0.01,weatherlink.com 1.10,2013-05-24 19:36:00,
2013-05-24 15:51:00,68.1,43.0,30.29,NW,321,6.0,11.0,40,0.00,,,0.01,weatherlink.com 1.10,2013-05-24 19:51:00,
2013-05-24 16:06:00,68.5,42.0,30.29,NW,309,7.0,9.0,39,0.00,,,0.01,weatherlink.com 1.10,2013-05-24 20:06:00,
2013-05-24 16:21:00,69.2,42.0,30.29,ENE,65,8.0,8.0,37,0.00,,,0.01,weatherlink.com 1.10,2013-05-24 20:21:00,
2013-05-24 16:36:00,67.9,42.0,30.29,ENE,74,9.0,15.0,39,0.00,,,0.01,weatherlink.com 1.10,2013-05-24 20:36:00,
2013-05-24 16:51:00,69.5,41.0,30.29,WNW,302,2.0,10.0,36,0.00,,,0.01,weatherlink.com 1.10,2013-05-24 20:51:00,
2013-05-24 17:06:00,68.3,40.0,30.29,ENE,72,4.0,12.0,36,0.00,,,0.01,weatherlink.com 1.10,2013-05-24 21:06:00,
2013-05-24 17:21:00,69.0,42.0,30.29,NNW,338,6.0,14.0,38,0.00,,,0.01,weatherlink.com 1.10,2013-05-24 21:21:00,
2013-05-24 17:36:00,69.2,40.0,30.29,NNE,15,6.0,13.0,35,0.00,,,0.01,weatherlink.com 1.10,2013-05-24 21:36:00,
2013-05-24 17:51:00,68.1,41.0,30.29,North,358,1.0,12.0,38,0.00,,,0.01,weatherlink.com 1.10,2013-05-24 21:51:00,
2013-05-24 18:07:00,69.3,44.0,30.29,North,4,2.0,10.0,40,0.00,,,0.01,weatherlink.com 1.10,2013-05-24 22:07:00,
2013-05-24 18:22:00,68.9,41.0,30.29,NNW,337,3.0,10.0,37,0.00,,,0.01,weatherlink.com 1.10,2013-05-24 22:22:00,
2013-05-24 18:37:00,67.5,39.0,30.29,North,1,6.0,12.0,35,0.00,,,0.01,weatherlink.com 1.10,2013-05-24 22:37:00,
2013-05-24 18:52:00,67.5,39.0,30.29,NNE,17,8.0,12.0,35,0.00,,,0.01,weatherlink.com 1.10,2013-05-24 22:52:00,
2013-05-24 19:07:00,67.8,40.0,30.29,WNW,289,1.0,11.0,37,0.00,,,0.01,weatherlink.com 1.10,2013-05-24 23:07:00,
2013-05-24 19:22:00,67.3,39.0,30.29,NNE,14,5.0,8.0,36,0.00,,,0.01,weatherlink.com 1.10,2013-05-24 23:22:00,
2013-05-24 19:37:00,66.6,39.0,30.29,NNW,344,3.0,12.0,37,0.00,,,0.01,weatherlink.com 1.10,2013-05-24 23:37:00,
2013-05-24 19:52:00,66.3,39.0,30.30,North,1,4.0,11.0,37,0.00,,,0.01,weatherlink.com 1.10,2013-05-24 23:52:00,
2013-05-24 20:07:00,65.5,38.0,30.30,NW,311,2.0,8.0,37,0.00,,,0.01,weatherlink.com 1.10,2013-05-25 00:07:00,
2013-05-24 20:22:00,64.9,39.0,30.30,North,354,5.0,6.0,39,0.00,,,0.01,weatherlink.com 1.10,2013-05-25 00:22:00,
2013-05-24 20:37:00,63.4,39.0,30.30,North,352,4.0,9.0,41,0.00,,,0.01,weatherlink.com 1.10,2013-05-25 00:37:00,
2013-05-24 20:52:00,62.2,40.0,30.29,North,1,1.0,7.0,44,0.00,,,0.01,weatherlink.com 1.10,2013-05-25 00:52:00,
2013-05-24 21:07:00,61.7,40.0,30.29,North,350,4.0,6.0,45,0.00,,,0.01,weatherlink.com 1.10,2013-05-25 01:07:00,
2013-05-24 21:22:00,61.2,41.0,30.30,NNE,23,4.0,5.0,47,0.00,,,0.01,weatherlink.com 1.10,2013-05-25 01:22:00,
2013-05-24 21:37:00,60.6,41.0,30.30,NNW,338,1.0,4.0,49,0.00,,,0.01,weatherlink.com 1.10,2013-05-25 01:37:00,
2013-05-24 21:52:00,60.0,41.0,30.30,NNE,12,2.0,3.0,50,0.00,,,0.01,weatherlink.com 1.10,2013-05-25 01:52:00,
2013-05-24 22:07:00,59.5,42.0,30.30,NNW,347,2.0,3.0,52,0.00,,,0.01,weatherlink.com 1.10,2013-05-25 02:07:00,
2013-05-24 22:22:00,58.7,42.0,30.31,North,5,1.0,4.0,54,0.00,,,0.01,weatherlink.com 1.10,2013-05-25 02:22:00,
2013-05-24 22:37:00,58.5,42.0,30.32,NE,37,2.0,4.0,54,0.00,,,0.01,weatherlink.com 1.10,2013-05-25 02:37:00,
2013-05-24 22:52:00,57.6,42.0,30.32,NNW,345,4.0,7.0,56,0.00,,,0.01,weatherlink.com 1.10,2013-05-25 02:52:00,
2013-05-24 23:07:00,57.5,41.0,30.33,North,352,1.0,8.0,55,0.00,,,0.01,weatherlink.com 1.10,2013-05-25 03:07:00,
2013-05-24 23:22:00,57.1,42.0,30.34,NNW,332,2.0,6.0,57,0.00,,,0.01,weatherlink.com 1.10,2013-05-25 03:22:00,
2013-05-24 23:37:00,56.4,41.0,30.33,NNW,342,2.0,5.0,57,0.00,,,0.01,weatherlink.com 1.10,2013-05-25 03:37:00,
2013-05-24 23:52:00,56.4,42.0,30.34,NNW,348,2.0,5.0,58,0.00,,,0.01,weatherlink.com 1.10,2013-05-25 03:52:00,